createdAt,value
2018-09-21T00:00:52.179Z,20.50
2018-09-21T00:03:20.486Z,20.50
2018-09-21T00:05:48.813Z,20.50
2018-09-21T00:08:17.158Z,20.50
2018-09-21T00:10:45.479Z,20.50
2018-09-21T00:13:13.802Z,20.40
2018-09-21T00:15:42.127Z,20.50
2018-09-21T00:18:10.443Z,20.40
2018-09-21T00:20:38.747Z,20.50
2018-09-21T00:23:07.108Z,20.40
2018-09-21T00:25:35.419Z,20.40
2018-09-21T00:28:03.744Z,20.40
2018-09-21T00:30:32.079Z,20.40
2018-09-21T00:33:00.414Z,20.40
2018-09-21T00:35:28.795Z,20.40
2018-09-21T00:37:57.134Z,20.40
2018-09-21T00:40:25.446Z,20.40
2018-09-21T00:42:53.818Z,20.40
2018-09-21T00:45:22.139Z,20.30
2018-09-21T00:47:50.472Z,20.30
2018-09-21T00:50:18.780Z,20.30
2018-09-21T00:52:47.105Z,20.30
2018-09-21T00:55:15.434Z,20.30
2018-09-21T00:57:43.796Z,20.30
2018-09-21T01:00:12.275Z,20.30
2018-09-21T01:02:40.602Z,20.20
2018-09-21T01:05:08.898Z,20.20
2018-09-21T01:07:37.263Z,20.20
2018-09-21T01:10:05.599Z,20.20
2018-09-21T01:12:33.953Z,20.20
2018-09-21T01:15:02.301Z,20.20
2018-09-21T01:17:30.639Z,20.10
2018-09-21T01:19:59.367Z,20.10
2018-09-21T01:22:27.692Z,20.10
2018-09-21T01:24:56.007Z,20.10
2018-09-21T01:27:24.332Z,20.10
2018-09-21T01:29:52.639Z,20.10
2018-09-21T01:32:21.002Z,20.10
2018-09-21T01:34:49.327Z,20.10
2018-09-21T01:37:18.046Z,20.00
2018-09-21T01:39:46.371Z,20.00
2018-09-21T01:42:14.715Z,20.00
2018-09-21T01:44:43.022Z,20.00
2018-09-21T01:47:11.358Z,20.00
2018-09-21T01:49:39.678Z,20.00
2018-09-21T01:52:08.019Z,20.00
2018-09-21T01:54:36.327Z,20.00
2018-09-21T01:57:04.672Z,20.00
2018-09-21T01:59:32.991Z,20.00
2018-09-21T02:02:01.324Z,20.00
2018-09-21T02:04:35.058Z,20.00
2018-09-21T02:07:03.498Z,20.00
2018-09-21T02:09:31.849Z,20.00
2018-09-21T02:12:00.175Z,20.00
2018-09-21T02:14:28.512Z,20.00
2018-09-21T02:16:56.870Z,20.00
2018-09-21T02:19:25.218Z,20.00
2018-09-21T02:21:53.705Z,20.10
2018-09-21T02:24:22.670Z,20.00
2018-09-21T02:26:51.756Z,20.10
2018-09-21T02:29:20.187Z,20.10
2018-09-21T02:31:49.132Z,20.10
2018-09-21T02:34:17.943Z,20.10
2018-09-21T02:36:46.239Z,20.10
2018-09-21T02:39:14.567Z,20.10
2018-09-21T02:41:42.883Z,20.10
2018-09-21T02:44:11.303Z,20.10
2018-09-21T02:46:39.608Z,20.10
2018-09-21T02:49:07.928Z,20.10
2018-09-21T02:51:36.239Z,20.10
2018-09-21T02:54:04.648Z,20.10
2018-09-21T02:56:33.251Z,20.10
2018-09-21T02:59:01.614Z,20.10
2018-09-21T03:01:29.931Z,20.10
2018-09-21T03:03:58.263Z,20.10
2018-09-21T03:06:26.597Z,20.10
2018-09-21T03:08:54.937Z,20.10
2018-09-21T03:11:23.279Z,20.10
2018-09-21T03:13:51.615Z,20.10
2018-09-21T03:16:19.927Z,20.10
2018-09-21T03:18:48.298Z,20.10
2018-09-21T03:21:16.614Z,20.10
2018-09-21T03:23:44.963Z,20.10
2018-09-21T03:26:13.359Z,20.10
2018-09-21T03:28:41.696Z,20.10
2018-09-21T03:31:10.026Z,20.00
2018-09-21T03:33:38.359Z,20.00
2018-09-21T03:36:06.664Z,20.00
2018-09-21T03:38:34.992Z,19.90
2018-09-21T03:41:03.311Z,19.90
2018-09-21T03:43:31.675Z,19.90
2018-09-21T03:46:00.007Z,19.90
2018-09-21T03:48:28.343Z,19.90
2018-09-21T03:50:56.660Z,19.90
2018-09-21T03:53:25.015Z,19.90
2018-09-21T03:55:53.363Z,19.90
2018-09-21T03:58:21.715Z,19.90
2018-09-21T04:00:50.044Z,19.90
2018-09-21T04:03:18.368Z,19.90
2018-09-21T04:05:46.698Z,19.90
2018-09-21T04:08:15.023Z,19.90
2018-09-21T04:10:43.380Z,19.90
2018-09-21T04:13:11.707Z,19.90
2018-09-21T04:15:40.039Z,19.90
2018-09-21T04:18:08.354Z,19.90
2018-09-21T04:20:36.691Z,19.90
2018-09-21T04:23:05.038Z,19.90
2018-09-21T04:25:33.647Z,19.90
2018-09-21T04:28:01.987Z,19.90
2018-09-21T04:30:30.320Z,19.90
2018-09-21T04:32:59.004Z,19.90
2018-09-21T04:35:27.506Z,20.00
2018-09-21T04:37:55.831Z,20.00
2018-09-21T04:40:24.163Z,20.00
2018-09-21T04:42:52.477Z,20.00
2018-09-21T04:45:20.819Z,20.00
2018-09-21T04:47:49.139Z,20.00
2018-09-21T04:50:17.471Z,20.00
2018-09-21T04:52:45.783Z,20.00
2018-09-21T04:55:14.139Z,20.00
2018-09-21T04:57:42.431Z,20.00
2018-09-21T05:00:10.818Z,20.00
2018-09-21T05:02:39.130Z,20.00
2018-09-21T05:05:07.519Z,20.00
2018-09-21T05:07:35.826Z,20.00
2018-09-21T05:10:04.170Z,20.00
2018-09-21T05:12:32.696Z,20.10
2018-09-21T05:15:01.046Z,20.10
2018-09-21T05:17:29.378Z,20.10
2018-09-21T05:19:57.767Z,20.10
2018-09-21T05:22:26.075Z,20.20
2018-09-21T05:24:54.424Z,20.20
2018-09-21T05:27:22.931Z,20.20
2018-09-21T05:29:51.275Z,20.30
2018-09-21T05:32:19.602Z,20.40
2018-09-21T05:34:48.079Z,20.40
2018-09-21T05:37:16.312Z,20.40
2018-09-21T05:39:44.659Z,20.50
2018-09-21T05:42:13.008Z,20.50
2018-09-21T05:44:41.368Z,20.60
2018-09-21T05:47:09.708Z,20.60
2018-09-21T05:49:38.063Z,20.70
2018-09-21T05:52:06.399Z,20.70
2018-09-21T05:54:34.756Z,20.80
2018-09-21T05:57:03.108Z,20.90
2018-09-21T05:59:31.466Z,21.00
2018-09-21T06:01:59.868Z,21.10
2018-09-21T06:04:28.187Z,21.10
2018-09-21T06:06:56.747Z,21.20
2018-09-21T06:09:25.077Z,21.20
2018-09-21T06:11:53.439Z,21.30
2018-09-21T06:14:21.780Z,21.40
2018-09-21T06:16:50.127Z,21.40
2018-09-21T06:19:18.512Z,21.60
2018-09-21T06:21:46.828Z,21.70
2018-09-21T06:24:15.148Z,21.80
2018-09-21T06:26:43.492Z,21.80
2018-09-21T06:29:11.964Z,21.90
2018-09-21T06:31:40.308Z,21.90
2018-09-21T06:34:08.615Z,22.00
2018-09-21T06:36:36.952Z,22.10
2018-09-21T06:39:08.155Z,22.10
2018-09-21T06:41:36.603Z,22.20
2018-09-21T06:44:04.930Z,22.20
2018-09-21T06:46:33.256Z,22.30
2018-09-21T06:49:01.577Z,22.30
2018-09-21T06:51:30.020Z,22.40
2018-09-21T06:53:58.346Z,22.40
2018-09-21T06:56:26.692Z,22.40
2018-09-21T06:58:55.098Z,22.40
2018-09-21T07:01:23.455Z,22.40
2018-09-21T07:03:51.778Z,22.50
2018-09-21T07:06:20.120Z,22.40
2018-09-21T07:08:48.435Z,22.50
2018-09-21T07:11:16.810Z,22.50
2018-09-21T07:13:45.127Z,22.50
2018-09-21T07:16:13.468Z,22.50
2018-09-21T07:18:41.784Z,22.60
2018-09-21T07:21:10.136Z,22.60
2018-09-21T07:23:38.449Z,22.60
2018-09-21T07:26:06.786Z,22.70
2018-09-21T07:28:35.103Z,22.70
2018-09-21T07:31:03.701Z,22.80
2018-09-21T07:33:32.021Z,23.00
2018-09-21T07:36:00.420Z,23.10
2018-09-21T07:38:28.747Z,23.30
2018-09-21T07:40:57.099Z,23.40
2018-09-21T07:43:25.415Z,23.50
2018-09-21T07:45:53.763Z,23.60
2018-09-21T07:48:22.088Z,23.70
2018-09-21T07:50:50.415Z,23.80
2018-09-21T07:53:18.748Z,23.80
2018-09-21T07:55:47.075Z,23.90
2018-09-21T07:58:15.448Z,24.00
2018-09-21T08:00:43.765Z,24.10
2018-09-21T08:03:12.119Z,24.20
2018-09-21T08:05:40.451Z,24.20
2018-09-21T08:08:08.800Z,24.30
2018-09-21T08:10:37.168Z,24.20
2018-09-21T08:13:05.522Z,24.20
2018-09-21T08:15:33.847Z,24.10
2018-09-21T08:18:02.188Z,24.10
2018-09-21T08:20:30.539Z,24.10
2018-09-21T08:22:58.914Z,24.10
2018-09-21T08:25:27.270Z,24.10
2018-09-21T08:27:55.620Z,24.10
2018-09-21T08:30:23.948Z,24.10
2018-09-21T08:32:52.328Z,24.10
2018-09-21T08:35:20.659Z,24.10
2018-09-21T08:37:49.010Z,24.10
2018-09-21T08:40:17.330Z,24.10
2018-09-21T08:42:45.688Z,24.10
2018-09-21T08:45:14.011Z,24.10
2018-09-21T08:47:42.356Z,24.10
2018-09-21T08:50:11.025Z,24.00
2018-09-21T08:52:39.447Z,23.90
2018-09-21T08:55:07.792Z,23.80
2018-09-21T08:57:36.208Z,23.80
2018-09-21T09:00:04.667Z,23.80
2018-09-21T09:02:32.996Z,23.80
2018-09-21T09:05:01.345Z,23.70
2018-09-21T09:07:29.691Z,23.80
2018-09-21T09:09:58.039Z,23.80
2018-09-21T09:12:26.588Z,23.80
2018-09-21T09:14:54.920Z,23.80
2018-09-21T09:17:23.395Z,23.80
2018-09-21T09:19:51.923Z,23.80
2018-09-21T09:22:20.275Z,23.80
2018-09-21T09:24:48.628Z,23.80
2018-09-21T09:27:16.969Z,23.80
2018-09-21T09:29:45.315Z,23.90
2018-09-21T09:32:13.663Z,23.90
2018-09-21T09:34:42.077Z,23.90
2018-09-21T09:37:10.475Z,23.80
2018-09-21T09:39:38.809Z,23.80
2018-09-21T09:42:07.179Z,23.80
2018-09-21T09:44:35.512Z,23.70
2018-09-21T09:47:03.866Z,23.80
2018-09-21T09:49:32.190Z,23.70
2018-09-21T09:52:00.520Z,23.70
2018-09-21T09:54:28.874Z,23.70
2018-09-21T09:56:57.199Z,23.60
2018-09-21T09:59:25.543Z,23.60
2018-09-21T10:01:53.923Z,23.50
2018-09-21T10:04:22.266Z,23.30
2018-09-21T10:06:50.747Z,23.00
2018-09-21T10:09:19.103Z,22.70
2018-09-21T10:11:47.488Z,22.50
2018-09-21T10:14:16.120Z,22.30
2018-09-21T10:16:44.446Z,22.10
2018-09-21T10:19:12.815Z,22.00
2018-09-21T10:21:41.203Z,21.90
2018-09-21T10:24:09.599Z,21.70
2018-09-21T10:26:37.987Z,21.50
2018-09-21T10:29:07.056Z,21.00
2018-09-21T10:31:35.457Z,20.40
2018-09-21T10:34:03.812Z,19.80
2018-09-21T10:36:32.171Z,19.00
2018-09-21T10:39:00.638Z,18.40
2018-09-21T10:41:29.045Z,17.70
2018-09-21T10:43:57.393Z,17.30
2018-09-21T10:46:25.744Z,16.90
2018-09-21T10:48:54.100Z,16.60
2018-09-21T10:51:22.468Z,16.30
2018-09-21T10:53:50.844Z,16.20
2018-09-21T10:56:19.479Z,16.00
2018-09-21T10:58:47.849Z,15.90
2018-09-21T11:01:16.301Z,15.90
2018-09-21T11:03:44.739Z,15.90
2018-09-21T11:06:13.076Z,16.00
2018-09-21T11:08:41.456Z,16.00
2018-09-21T11:11:09.825Z,15.90
2018-09-21T11:13:38.203Z,15.90
2018-09-21T11:16:06.762Z,15.80
2018-09-21T11:18:35.172Z,15.70
2018-09-21T11:21:03.561Z,15.70
2018-09-21T11:23:32.099Z,15.70
2018-09-21T11:26:00.430Z,15.80
2018-09-21T11:28:28.811Z,15.80
2018-09-21T11:30:57.143Z,15.80
2018-09-21T11:33:25.503Z,15.80
2018-09-21T11:35:53.874Z,15.80
2018-09-21T11:38:22.290Z,15.80
2018-09-21T11:40:50.678Z,15.90
2018-09-21T11:43:19.026Z,15.90
2018-09-21T11:45:47.477Z,15.90
2018-09-21T11:48:15.820Z,15.80
2018-09-21T11:50:44.168Z,15.80
2018-09-21T11:53:12.524Z,15.80
2018-09-21T11:55:40.892Z,15.80
2018-09-21T11:58:09.360Z,15.80
2018-09-21T12:00:38.877Z,15.80
2018-09-21T12:03:07.439Z,15.80
2018-09-21T12:05:36.686Z,15.90
2018-09-21T12:08:05.044Z,15.90
2018-09-21T12:10:34.080Z,15.80
2018-09-21T12:13:02.401Z,15.80
2018-09-21T12:15:30.812Z,15.80
2018-09-21T12:17:59.173Z,15.70
2018-09-21T12:20:27.576Z,15.70
2018-09-21T12:22:55.924Z,15.70
2018-09-21T12:25:24.280Z,15.80
2018-09-21T12:27:52.903Z,15.80
2018-09-21T12:30:21.427Z,15.90
2018-09-21T12:32:49.815Z,16.00
2018-09-21T12:35:18.176Z,16.10
2018-09-21T12:37:46.520Z,16.20
2018-09-21T12:40:15.164Z,16.20
2018-09-21T12:42:43.709Z,16.30
2018-09-21T12:45:12.240Z,16.20
2018-09-21T12:47:40.584Z,16.30
2018-09-21T12:50:08.964Z,16.30
2018-09-21T12:52:37.308Z,16.30
2018-09-21T12:55:05.965Z,16.30
2018-09-21T12:57:34.325Z,16.20
2018-09-21T13:00:02.733Z,16.20
2018-09-21T13:02:31.301Z,16.20
2018-09-21T13:04:59.688Z,16.20
2018-09-21T13:07:28.020Z,16.20
2018-09-21T13:09:56.687Z,16.30
2018-09-21T13:12:25.064Z,16.30
2018-09-21T13:14:53.714Z,16.40
2018-09-21T13:17:22.375Z,16.40
2018-09-21T13:19:51.075Z,16.40
2018-09-21T13:22:19.738Z,16.40
2018-09-21T14:27:32.612Z,16.60
2018-09-21T14:30:01.130Z,16.60
2018-09-21T14:32:29.910Z,16.60
2018-09-21T14:34:58.799Z,16.70
2018-09-21T14:37:27.566Z,16.70
2018-09-21T14:39:56.373Z,16.70
2018-09-21T14:42:25.123Z,16.70
2018-09-21T14:57:53.184Z,16.80
2018-09-21T15:03:42.551Z,17.90
2018-09-21T15:06:11.069Z,18.10
2018-09-21T15:08:39.411Z,18.70
2018-09-21T15:11:07.787Z,19.40
2018-09-21T15:13:36.136Z,20.20
2018-09-21T15:16:04.493Z,20.70
2018-09-21T15:18:32.854Z,21.30
2018-09-21T15:21:01.210Z,21.60
2018-09-21T15:23:29.923Z,21.20
2018-09-21T15:25:58.274Z,21.00
2018-09-21T15:28:26.590Z,21.00
2018-09-21T15:30:54.932Z,20.80
2018-09-21T15:33:23.252Z,20.90
2018-09-21T15:35:51.604Z,21.20
2018-09-21T15:38:19.939Z,21.20
2018-09-21T15:40:48.272Z,20.90
2018-09-21T15:43:16.683Z,21.10
2018-09-21T15:45:45.173Z,21.20
2018-09-21T15:48:13.528Z,21.20
2018-09-21T15:50:41.857Z,21.40
2018-09-21T15:53:10.216Z,21.80
2018-09-21T15:55:38.561Z,22.10
2018-09-21T15:58:06.991Z,22.20
2018-09-21T16:00:35.375Z,22.10
2018-09-21T16:03:03.745Z,21.80
2018-09-21T16:05:32.074Z,21.20
2018-09-21T16:08:00.449Z,20.70
2018-09-21T16:10:28.800Z,20.30
2018-09-21T16:12:57.147Z,19.80
2018-09-21T16:15:25.491Z,19.40
2018-09-21T16:17:53.912Z,19.10
2018-09-21T16:20:22.333Z,18.80
2018-09-21T16:22:50.686Z,18.50
2018-09-21T16:25:19.029Z,18.30
2018-09-21T16:27:47.380Z,18.20
2018-09-21T16:30:15.704Z,18.10
2018-09-21T16:32:44.106Z,18.10
2018-09-21T16:35:12.436Z,18.00
2018-09-21T16:37:40.825Z,18.00
2018-09-21T16:40:09.185Z,18.00
2018-09-21T16:42:37.539Z,17.90
2018-09-21T16:45:07.957Z,17.80
2018-09-21T16:47:36.396Z,17.70
2018-09-21T16:50:05.164Z,17.70
2018-09-21T16:52:33.590Z,17.50
2018-09-21T16:55:02.056Z,17.50
2018-09-21T16:57:30.516Z,17.30
2018-09-21T16:59:58.842Z,17.10
2018-09-21T17:02:27.267Z,17.00
2018-09-21T17:04:55.642Z,16.90
2018-09-21T17:07:23.980Z,16.80
2018-09-21T17:09:52.394Z,16.80
2018-09-21T17:12:20.825Z,16.70
2018-09-21T17:14:49.151Z,16.60
2018-09-21T17:17:17.508Z,16.50
2018-09-21T17:19:45.852Z,16.50
2018-09-21T17:22:14.183Z,16.40
2018-09-21T17:24:42.519Z,16.30
2018-09-21T17:27:10.867Z,16.30
2018-09-21T17:29:39.180Z,16.20
2018-09-21T17:32:07.548Z,16.00
2018-09-21T17:34:35.838Z,15.90
2018-09-21T17:37:04.296Z,15.90
2018-09-21T17:39:32.647Z,15.80
2018-09-21T17:42:00.959Z,15.70
2018-09-21T17:44:29.290Z,15.70
2018-09-21T17:46:57.659Z,15.60
2018-09-21T17:49:26.044Z,15.50
2018-09-21T17:51:54.345Z,15.50
2018-09-21T17:54:22.667Z,15.40
2018-09-21T17:56:51.003Z,15.40
2018-09-21T17:59:19.364Z,15.30
2018-09-21T18:01:47.712Z,15.20
2018-09-21T18:04:16.063Z,15.20
2018-09-21T18:06:44.460Z,15.20
2018-09-21T18:09:12.799Z,15.20
2018-09-21T18:11:41.298Z,15.10
2018-09-21T18:14:09.672Z,15.00
2018-09-21T18:16:38.007Z,15.00
2018-09-21T18:19:06.368Z,14.90
2018-09-21T18:21:34.799Z,14.90
2018-09-21T18:24:03.143Z,14.80
2018-09-21T18:26:31.471Z,14.80
2018-09-21T18:28:59.829Z,14.70
2018-09-21T18:31:28.213Z,14.70
2018-09-21T18:33:56.562Z,14.60
2018-09-21T18:36:24.877Z,14.60
2018-09-21T18:38:53.223Z,14.60
2018-09-21T18:41:21.579Z,14.60
2018-09-21T18:43:49.935Z,14.50
2018-09-21T18:46:18.298Z,14.50
2018-09-21T18:48:46.649Z,14.50
2018-09-21T18:51:15.154Z,14.50
2018-09-21T18:53:43.536Z,14.40
2018-09-21T18:56:11.915Z,14.40
2018-09-21T18:58:40.290Z,14.40
2018-09-21T19:01:08.635Z,14.40
2018-09-21T19:03:36.980Z,14.40
2018-09-21T19:06:05.315Z,14.40
2018-09-21T19:08:33.689Z,14.40
2018-09-21T19:11:02.099Z,14.30
2018-09-21T19:13:30.503Z,14.30
2018-09-21T19:15:58.862Z,14.30
2018-09-21T19:18:27.212Z,14.30
2018-09-21T19:20:55.597Z,14.30
2018-09-21T19:23:23.977Z,14.30
2018-09-21T19:25:52.374Z,14.20
2018-09-21T19:28:20.798Z,13.80
2018-09-21T19:30:49.160Z,13.30
2018-09-21T19:33:17.503Z,12.90
2018-09-21T19:35:45.845Z,12.50
2018-09-21T19:38:14.266Z,12.20
2018-09-21T19:40:42.677Z,12.00
2018-09-21T19:43:11.008Z,11.90
2018-09-21T19:45:39.420Z,11.70
2018-09-21T19:48:07.720Z,11.70
2018-09-21T19:50:36.071Z,11.60
2018-09-21T19:53:04.674Z,11.60
2018-09-21T19:55:33.598Z,11.50
2018-09-21T19:58:01.978Z,11.40
2018-09-21T20:00:30.324Z,11.40
2018-09-21T20:02:58.654Z,11.40
2018-09-21T20:05:26.991Z,11.40
2018-09-21T20:07:55.324Z,11.40
2018-09-21T20:10:23.689Z,11.40
2018-09-21T20:12:52.023Z,11.30
2018-09-21T20:15:20.521Z,11.30
2018-09-21T20:17:49.050Z,11.30
2018-09-21T20:20:17.412Z,11.20
2018-09-21T20:22:46.407Z,11.20
2018-09-21T20:25:14.753Z,11.20
2018-09-21T20:27:43.118Z,11.10
2018-09-21T20:30:16.869Z,11.00
2018-09-21T20:32:50.523Z,11.00
2018-09-21T20:35:19.015Z,11.00
2018-09-21T20:37:47.431Z,11.00
2018-09-21T20:40:16.027Z,10.90
2018-09-21T20:42:44.604Z,10.90
2018-09-21T20:45:12.943Z,10.90
2018-09-21T20:47:41.287Z,10.90
2018-09-21T20:50:09.680Z,10.90
2018-09-21T20:52:38.010Z,10.90
2018-09-21T20:55:06.647Z,10.90
2018-09-21T20:57:34.982Z,10.90
2018-09-21T21:00:03.363Z,10.90
2018-09-21T21:02:31.703Z,10.90
2018-09-21T21:05:00.163Z,10.90
2018-09-21T21:07:28.511Z,10.90
2018-09-21T21:09:56.872Z,10.90
2018-09-21T21:12:25.232Z,11.00
2018-09-21T21:14:53.593Z,11.00
2018-09-21T21:17:21.925Z,11.00
2018-09-21T21:19:50.294Z,11.00
2018-09-21T21:22:18.671Z,11.00
2018-09-21T21:24:46.998Z,11.00
2018-09-21T21:27:15.324Z,11.10
2018-09-21T21:29:43.703Z,11.10
2018-09-21T21:32:12.023Z,11.10
2018-09-21T21:34:40.357Z,11.20
2018-09-21T21:37:08.705Z,11.20
2018-09-21T21:39:37.041Z,11.10
2018-09-21T21:42:05.425Z,11.00
2018-09-21T21:44:33.983Z,11.00
2018-09-21T21:47:02.346Z,10.90
2018-09-21T21:49:31.990Z,10.90
2018-09-21T21:52:01.677Z,10.90
2018-09-21T21:54:30.039Z,10.80
2018-09-21T21:56:58.377Z,10.90
2018-09-21T21:59:26.708Z,10.90
2018-09-21T22:01:58.120Z,10.90
2018-09-21T22:04:29.033Z,10.90
2018-09-21T22:06:58.661Z,10.90
2018-09-21T22:09:27.950Z,10.90
2018-09-21T22:12:02.805Z,10.90
2018-09-21T22:14:32.445Z,10.90
2018-09-21T22:17:02.123Z,10.90
2018-09-21T22:19:31.664Z,11.00
2018-09-21T22:22:01.211Z,11.00
2018-09-21T22:24:30.769Z,11.00
2018-09-21T22:26:59.833Z,11.00
2018-09-21T22:29:29.537Z,11.00
2018-09-21T22:31:59.202Z,11.00
2018-09-21T22:34:28.763Z,11.00
2018-09-21T22:36:58.475Z,11.00
2018-09-21T22:39:26.839Z,11.00
2018-09-21T22:41:55.168Z,11.00
2018-09-21T22:44:23.618Z,11.00
2018-09-21T22:46:51.986Z,11.00
2018-09-21T22:49:23.334Z,11.00
2018-09-21T22:51:51.674Z,11.00
2018-09-21T22:54:19.979Z,11.00
2018-09-21T22:56:48.322Z,11.00
2018-09-21T22:59:16.631Z,11.00
2018-09-21T23:01:44.995Z,11.00
2018-09-21T23:04:13.315Z,11.00
2018-09-21T23:06:41.900Z,11.00
2018-09-21T23:09:12.130Z,11.10
2018-09-21T23:11:41.209Z,11.10
2018-09-21T23:14:10.088Z,11.10
2018-09-21T23:16:38.694Z,11.00
2018-09-21T23:19:07.020Z,11.10
2018-09-21T23:21:35.352Z,11.00
2018-09-21T23:24:03.699Z,11.00
2018-09-21T23:26:32.079Z,11.00
2018-09-21T23:29:00.406Z,11.00
2018-09-21T23:31:28.748Z,11.00
2018-09-21T23:33:57.064Z,11.00
2018-09-21T23:36:25.403Z,11.00
2018-09-21T23:38:53.723Z,11.00
2018-09-21T23:41:22.059Z,11.00
2018-09-21T23:43:50.385Z,11.00
2018-09-21T23:46:18.716Z,11.00
2018-09-21T23:48:47.033Z,11.00
2018-09-21T23:51:15.498Z,11.10
2018-09-21T23:53:43.825Z,11.10
2018-09-21T23:56:12.163Z,11.00
2018-09-21T23:58:40.508Z,11.10
